Time;durP1;ratioP1;P1;durP2;ratioP2;P2;SDS_P1;SDS_P2;PMS_P1;PMS_P2;Temp;Humidity;BMP_temperature;BMP_pressure;BME280_temperature;BME280_humidity;BME280_pressure;Samples;Min_cycle;Max_cycle;Signal;HPM_P1;HPM_P2
2020/12/12 00:00:34;;;;;;;100.78;36.95;;;;;;;;;;5079461;28;20025;-64
2020/12/12 00:03:00;;;;;;;104.38;39.00;;;;;;;;;;5077064;28;20130;-64
2020/12/12 00:05:26;;;;;;;101.63;38.78;;;;;;;;;;5078851;28;20033;-64
2020/12/12 00:07:52;;;;;;;102.88;38.08;;;;;;;;;;5073946;28;20028;-64
2020/12/12 00:10:23;;;;;;;105.65;38.97;;;;;;;;;;5082852;28;20055;-65
2020/12/12 00:12:49;;;;;;;108.50;38.88;;;;;;;;;;5065162;28;20432;-64
2020/12/12 00:15:15;;;;;;;105.53;37.70;;;;;;;;;;5081778;28;20051;-65
2020/12/12 00:17:41;;;;;;;111.95;39.63;;;;;;;;;;5067371;28;20028;-64
2020/12/12 00:20:07;;;;;;;107.10;38.92;;;;;;;;;;5080767;28;20703;-65
2020/12/12 00:22:33;;;;;;;104.78;38.78;;;;;;;;;;5079556;28;20494;-65
2020/12/12 00:24:59;;;;;;;98.82;37.70;;;;;;;;;;5069782;28;20494;-65
2020/12/12 00:27:25;;;;;;;102.05;39.08;;;;;;;;;;5063379;28;20050;-64
2020/12/12 00:29:51;;;;;;;106.90;39.83;;;;;;;;;;5084635;28;20375;-64
2020/12/12 00:32:16;;;;;;;109.30;39.97;;;;;;;;;;5084313;28;20543;-64
2020/12/12 00:34:42;;;;;;;107.55;39.42;;;;;;;;;;5082545;28;20089;-64
2020/12/12 00:37:08;;;;;;;113.28;39.67;;;;;;;;;;5059613;28;20016;-64
2020/12/12 00:39:34;;;;;;;106.70;39.72;;;;;;;;;;5087195;28;20459;-64
2020/12/12 00:42:00;;;;;;;100.18;39.47;;;;;;;;;;5081479;28;20425;-65
2020/12/12 00:44:26;;;;;;;120.68;39.53;;;;;;;;;;5082813;28;20451;-64
2020/12/12 00:46:53;;;;;;;110.38;42.28;;;;;;;;;;5075509;28;20028;-64
2020/12/12 00:49:19;;;;;;;120.72;40.33;;;;;;;;;;5085332;28;20028;-64
2020/12/12 00:51:46;;;;;;;112.97;39.67;;;;;;;;;;5071030;28;20071;-64
2020/12/12 00:54:12;;;;;;;112.82;39.45;;;;;;;;;;5073738;28;20039;-64
2020/12/12 00:56:37;;;;;;;106.35;39.45;;;;;;;;;;5082525;28;20028;-64
2020/12/12 00:59:03;;;;;;;117.80;41.80;;;;;;;;;;5084721;28;20024;-64
2020/12/12 01:01:29;;;;;;;119.10;42.53;;;;;;;;;;5086472;28;20020;-64
2020/12/12 01:03:55;;;;;;;114.80;40.30;;;;;;;;;;5073045;28;20048;-64
2020/12/12 01:06:21;;;;;;;120.25;40.72;;;;;;;;;;5079053;28;20086;-64
2020/12/12 01:08:47;;;;;;;105.00;40.13;;;;;;;;;;5080644;28;20059;-64
2020/12/12 01:11:14;;;;;;;115.10;42.13;;;;;;;;;;5077234;28;20494;-64
2020/12/12 01:13:40;;;;;;;129.18;42.88;;;;;;;;;;5066854;28;20058;-64
2020/12/12 01:16:06;;;;;;;113.63;41.17;;;;;;;;;;5082613;28;20605;-64
2020/12/12 01:18:32;;;;;;;118.78;42.30;;;;;;;;;;5068545;28;20019;-64
2020/12/12 01:20:58;;;;;;;131.07;46.70;;;;;;;;;;5082161;28;20016;-65
2020/12/12 01:23:24;;;;;;;120.35;43.78;;;;;;;;;;5078443;28;20036;-64
2020/12/12 01:25:50;;;;;;;133.23;44.92;;;;;;;;;;5086356;28;20027;-64
2020/12/12 01:28:18;;;;;;;127.68;43.42;;;;;;;;;;5073779;28;20024;-64
2020/12/12 01:30:44;;;;;;;117.70;42.90;;;;;;;;;;5077665;28;20036;-64
2020/12/12 01:33:10;;;;;;;122.43;43.80;;;;;;;;;;5081921;28;20036;-64
2020/12/12 01:35:36;;;;;;;124.18;45.13;;;;;;;;;;5086244;28;20028;-64
2020/12/12 01:38:02;;;;;;;122.70;43.92;;;;;;;;;;5075052;28;20021;-64
2020/12/12 01:40:28;;;;;;;121.03;42.95;;;;;;;;;;5085052;28;20035;-64
2020/12/12 01:42:54;;;;;;;119.60;42.53;;;;;;;;;;5079707;28;20020;-64
2020/12/12 01:45:20;;;;;;;122.72;41.30;;;;;;;;;;5085466;28;20031;-64
2020/12/12 01:47:46;;;;;;;127.43;40.78;;;;;;;;;;5084336;28;20039;-64
2020/12/12 01:50:12;;;;;;;112.10;41.33;;;;;;;;;;5072742;28;20025;-64
2020/12/12 01:52:38;;;;;;;108.18;39.58;;;;;;;;;;5080939;28;20028;-64
2020/12/12 01:55:04;;;;;;;117.25;39.83;;;;;;;;;;5084737;28;20036;-64
2020/12/12 01:57:30;;;;;;;111.70;38.75;;;;;;;;;;5084152;28;20055;-65
2020/12/12 01:59:56;;;;;;;111.07;40.10;;;;;;;;;;5059049;28;20367;-64
2020/12/12 02:02:22;;;;;;;101.25;37.65;;;;;;;;;;5076066;28;20032;-64
2020/12/12 02:04:55;;;;;;;100.38;37.30;;;;;;;;;;5076067;28;20035;-64
2020/12/12 02:07:22;;;;;;;119.35;39.67;;;;;;;;;;5077175;28;20035;-64
2020/12/12 02:09:49;;;;;;;107.57;40.03;;;;;;;;;;5076001;28;20040;-64
2020/12/12 02:12:16;;;;;;;106.78;37.40;;;;;;;;;;5074713;28;20032;-64
2020/12/12 02:14:42;;;;;;;110.07;39.58;;;;;;;;;;5070355;28;20082;-64
2020/12/12 02:17:09;;;;;;;132.70;41.17;;;;;;;;;;5069802;28;20060;-64
2020/12/12 02:19:35;;;;;;;117.18;40.70;;;;;;;;;;5074951;28;20486;-64
2020/12/12 02:22:02;;;;;;;120.68;43.38;;;;;;;;;;5082629;28;20032;-64
2020/12/12 02:24:30;;;;;;;123.60;42.58;;;;;;;;;;5063927;28;20063;-64
2020/12/12 02:26:57;;;;;;;131.88;42.25;;;;;;;;;;5055926;28;20016;-64
2020/12/12 02:29:26;;;;;;;121.90;41.13;;;;;;;;;;5069395;28;20029;-64
2020/12/12 02:31:52;;;;;;;112.30;40.78;;;;;;;;;;5075680;28;20497;-64
2020/12/12 02:34:18;;;;;;;104.35;41.05;;;;;;;;;;5082739;28;20059;-64
2020/12/12 02:36:44;;;;;;;116.43;42.10;;;;;;;;;;5085514;28;20020;-64
2020/12/12 02:39:11;;;;;;;108.10;39.53;;;;;;;;;;5081964;28;20036;-64
2020/12/12 02:41:37;;;;;;;110.93;40.63;;;;;;;;;;5073460;28;20437;-65
2020/12/12 02:44:03;;;;;;;104.95;39.65;;;;;;;;;;5066414;28;20028;-64
2020/12/12 02:46:29;;;;;;;104.57;39.97;;;;;;;;;;5070689;28;20619;-64
2020/12/12 02:48:55;;;;;;;116.68;40.28;;;;;;;;;;5084989;28;20035;-64
2020/12/12 02:51:21;;;;;;;115.88;40.28;;;;;;;;;;5065857;28;20029;-65
2020/12/12 02:53:47;;;;;;;112.35;40.28;;;;;;;;;;5075917;28;20032;-64
2020/12/12 02:56:19;;;;;;;124.85;39.88;;;;;;;;;;5083978;28;20020;-64
2020/12/12 02:58:45;;;;;;;82.15;29.35;;;;;;;;;;5085462;28;20382;-64
2020/12/12 03:01:11;;;;;;;111.50;40.33;;;;;;;;;;5084359;28;20111;-64
2020/12/12 03:03:37;;;;;;;113.90;41.03;;;;;;;;;;5080610;28;20056;-65
2020/12/12 03:06:03;;;;;;;111.35;39.03;;;;;;;;;;5070109;28;20027;-64
2020/12/12 03:08:29;;;;;;;117.53;39.40;;;;;;;;;;5083171;28;20047;-65
2020/12/12 03:10:56;;;;;;;114.53;41.08;;;;;;;;;;5087203;28;20020;-64
2020/12/12 03:13:21;;;;;;;118.05;37.95;;;;;;;;;;5070273;28;20032;-64
2020/12/12 03:15:47;;;;;;;102.85;39.70;;;;;;;;;;5078271;28;20025;-64
2020/12/12 03:18:14;;;;;;;113.10;42.20;;;;;;;;;;5089191;28;20017;-64
2020/12/12 03:20:40;;;;;;;118.88;40.70;;;;;;;;;;5078214;28;20085;-64
2020/12/12 03:23:06;;;;;;;117.55;40.60;;;;;;;;;;5079884;28;20033;-65
2020/12/12 03:25:32;;;;;;;111.45;40.50;;;;;;;;;;5087309;28;20032;-65
2020/12/12 03:27:58;;;;;;;105.63;39.58;;;;;;;;;;5083471;28;20031;-65
2020/12/12 03:30:24;;;;;;;111.45;40.30;;;;;;;;;;5084036;28;20035;-64
2020/12/12 03:32:50;;;;;;;104.88;38.70;;;;;;;;;;5081330;28;20371;-65
2020/12/12 03:35:16;;;;;;;117.85;39.25;;;;;;;;;;5086300;28;20024;-64
2020/12/12 03:37:42;;;;;;;101.95;37.22;;;;;;;;;;5059888;28;20036;-64
2020/12/12 03:40:08;;;;;;;109.18;39.80;;;;;;;;;;5086962;28;20021;-65
2020/12/12 03:42:34;;;;;;;103.03;39.80;;;;;;;;;;5071745;28;20029;-65
2020/12/12 03:45:00;;;;;;;99.97;37.75;;;;;;;;;;5066933;28;20035;-64
2020/12/12 03:47:26;;;;;;;107.00;39.20;;;;;;;;;;5071514;28;20028;-65
2020/12/12 03:49:52;;;;;;;114.18;38.70;;;;;;;;;;5078068;28;20032;-64
2020/12/12 03:52:18;;;;;;;103.45;37.83;;;;;;;;;;5079569;28;20133;-64
2020/12/12 03:54:44;;;;;;;97.50;38.42;;;;;;;;;;5085124;28;20042;-64
2020/12/12 03:57:10;;;;;;;104.57;37.08;;;;;;;;;;5085784;28;20229;-65
2020/12/12 03:59:36;;;;;;;101.65;37.45;;;;;;;;;;5088540;28;20012;-64
2020/12/12 04:02:01;;;;;;;97.68;37.67;;;;;;;;;;5085347;28;20364;-64
2020/12/12 04:04:27;;;;;;;98.88;36.65;;;;;;;;;;5068551;28;20451;-65
2020/12/12 04:06:53;;;;;;;97.40;36.95;;;;;;;;;;5068157;28;20032;-64
2020/12/12 04:09:19;;;;;;;95.68;36.53;;;;;;;;;;5087580;28;20043;-64
2020/12/12 04:11:45;;;;;;;96.00;36.33;;;;;;;;;;5072737;28;20028;-64
2020/12/12 04:14:11;;;;;;;94.30;38.25;;;;;;;;;;5076195;28;20050;-64
2020/12/12 04:16:37;;;;;;;101.97;36.50;;;;;;;;;;5081267;28;20016;-64
2020/12/12 04:19:03;;;;;;;93.07;36.42;;;;;;;;;;5084800;28;20024;-64
2020/12/12 04:21:29;;;;;;;90.38;35.35;;;;;;;;;;5086146;28;20048;-64
2020/12/12 04:23:55;;;;;;;97.38;35.42;;;;;;;;;;5080468;28;20035;-64
2020/12/12 04:26:21;;;;;;;104.38;37.47;;;;;;;;;;5072806;28;20024;-64
2020/12/12 04:28:47;;;;;;;92.95;35.60;;;;;;;;;;5086625;28;20347;-64
2020/12/12 04:31:13;;;;;;;103.68;35.67;;;;;;;;;;5084899;28;20028;-64
2020/12/12 04:33:39;;;;;;;93.90;35.33;;;;;;;;;;5068476;28;20033;-64
2020/12/12 04:36:05;;;;;;;94.25;35.10;;;;;;;;;;5078830;28;20028;-64
2020/12/12 04:38:34;;;;;;;104.97;38.42;;;;;;;;;;5086795;28;20047;-64
2020/12/12 04:41:00;;;;;;;93.13;36.88;;;;;;;;;;5074195;28;20044;-64
2020/12/12 04:43:26;;;;;;;106.07;36.88;;;;;;;;;;5072041;28;20083;-64
2020/12/12 04:45:53;;;;;;;94.22;37.22;;;;;;;;;;5064127;28;20041;-64
2020/12/12 04:48:19;;;;;;;90.60;37.20;;;;;;;;;;5074882;28;20028;-64
2020/12/12 04:50:45;;;;;;;91.68;35.20;;;;;;;;;;5073128;28;20435;-64
2020/12/12 04:53:12;;;;;;;88.20;37.10;;;;;;;;;;5080398;28;20363;-64
2020/12/12 04:55:42;;;;;;;89.95;36.30;;;;;;;;;;5084683;28;20035;-64
2020/12/12 04:58:10;;;;;;;96.47;34.80;;;;;;;;;;5085263;28;20512;-64
2020/12/12 05:00:36;;;;;;;83.95;34.53;;;;;;;;;;5087064;28;20016;-64
2020/12/12 05:03:04;;;;;;;102.05;38.88;;;;;;;;;;5084405;28;20123;-64
2020/12/12 05:05:30;;;;;;;87.35;35.03;;;;;;;;;;5057730;28;20626;-64
2020/12/12 05:07:57;;;;;;;98.40;36.55;;;;;;;;;;5054403;28;20086;-64
2020/12/12 05:10:26;;;;;;;92.63;35.97;;;;;;;;;;5081618;28;20379;-64
2020/12/12 05:12:52;;;;;;;88.65;35.80;;;;;;;;;;5076963;28;20086;-64
2020/12/12 05:15:18;;;;;;;87.65;33.50;;;;;;;;;;5071405;28;20463;-64
2020/12/12 05:17:46;;;;;;;96.97;33.95;;;;;;;;;;5085257;28;20619;-64
2020/12/12 05:20:13;;;;;;;87.72;35.65;;;;;;;;;;5084493;28;20024;-64
2020/12/12 05:22:39;;;;;;;88.80;34.90;;;;;;;;;;5085371;28;20526;-64
2020/12/12 05:25:05;;;;;;;79.63;32.05;;;;;;;;;;5082062;28;20496;-64
2020/12/12 05:27:31;;;;;;;86.22;34.50;;;;;;;;;;5083186;28;20032;-64
2020/12/12 05:30:00;;;;;;;90.30;34.50;;;;;;;;;;5084654;28;20039;-64
2020/12/12 05:32:27;;;;;;;88.70;34.42;;;;;;;;;;5086241;28;20028;-64
2020/12/12 05:34:56;;;;;;;86.32;34.63;;;;;;;;;;5080695;28;20085;-64
2020/12/12 05:37:22;;;;;;;94.13;36.63;;;;;;;;;;5078226;28;20024;-65
2020/12/12 05:39:51;;;;;;;86.57;34.15;;;;;;;;;;5083326;28;20024;-65
2020/12/12 05:42:20;;;;;;;89.53;37.17;;;;;;;;;;5071603;28;20032;-64
2020/12/12 05:44:51;;;;;;;90.97;35.20;;;;;;;;;;5077711;28;20024;-64
2020/12/12 05:47:17;;;;;;;90.07;36.63;;;;;;;;;;5072998;28;20028;-64
2020/12/12 05:49:46;;;;;;;86.63;34.75;;;;;;;;;;5065208;28;20043;-64
2020/12/12 05:52:13;;;;;;;92.85;36.38;;;;;;;;;;5073800;28;20024;-64
2020/12/12 05:54:39;;;;;;;87.18;35.17;;;;;;;;;;5072317;28;20039;-64
2020/12/12 05:57:05;;;;;;;88.03;35.70;;;;;;;;;;5082999;28;20077;-64
2020/12/12 05:59:31;;;;;;;89.88;36.85;;;;;;;;;;5076460;28;20032;-65
2020/12/12 06:01:58;;;;;;;84.55;34.60;;;;;;;;;;5080215;28;20495;-64
2020/12/12 06:04:28;;;;;;;93.07;35.90;;;;;;;;;;5079158;28;20116;-64
2020/12/12 06:06:57;;;;;;;94.30;38.03;;;;;;;;;;5075895;28;20032;-64
2020/12/12 06:09:29;;;;;;;94.10;36.17;;;;;;;;;;5069804;28;20448;-64
2020/12/12 06:11:56;;;;;;;78.65;34.17;;;;;;;;;;5078202;28;20032;-64
2020/12/12 06:14:22;;;;;;;82.80;33.63;;;;;;;;;;5069980;28;20040;-64
2020/12/12 06:16:49;;;;;;;87.80;34.97;;;;;;;;;;5082214;28;20354;-64
2020/12/12 06:19:16;;;;;;;83.43;36.38;;;;;;;;;;5079732;28;20032;-64
2020/12/12 06:21:51;;;;;;;87.82;34.15;;;;;;;;;;5085504;28;20474;-64
2020/12/12 06:24:18;;;;;;;88.90;37.22;;;;;;;;;;5081496;28;20394;-64
2020/12/12 06:26:44;;;;;;;86.38;35.88;;;;;;;;;;5084234;28;20028;-64
2020/12/12 06:29:14;;;;;;;88.97;36.65;;;;;;;;;;5081803;28;20382;-64
2020/12/12 06:31:40;;;;;;;87.10;37.22;;;;;;;;;;5071701;28;20073;-64
2020/12/12 06:34:06;;;;;;;77.55;33.42;;;;;;;;;;5082259;28;20036;-64
2020/12/12 06:36:33;;;;;;;91.05;35.13;;;;;;;;;;5085940;28;20032;-65
2020/12/12 06:39:17;;;;;;;86.22;35.97;;;;;;;;;;5085291;28;20554;-64
2020/12/12 06:41:43;;;;;;;87.15;34.72;;;;;;;;;;5080734;28;20056;-64
2020/12/12 06:44:09;;;;;;;87.20;34.88;;;;;;;;;;5067356;28;20052;-64
2020/12/12 06:46:52;;;;;;;75.60;34.33;;;;;;;;;;5075478;28;20019;-64
2020/12/12 06:49:18;;;;;;;83.72;34.47;;;;;;;;;;5082221;28;20068;-64
2020/12/12 06:51:44;;;;;;;77.85;34.75;;;;;;;;;;5079029;28;20047;-64
2020/12/12 06:54:10;;;;;;;79.82;34.28;;;;;;;;;;5084646;28;20029;-64
2020/12/12 06:56:36;;;;;;;78.20;33.15;;;;;;;;;;5084498;28;20089;-64
2020/12/12 06:59:20;;;;;;;87.10;34.60;;;;;;;;;;5085164;28;20012;-64
2020/12/12 07:01:55;;;;;;;79.93;32.60;;;;;;;;;;5087218;28;20375;-65
2020/12/12 07:04:26;;;;;;;80.45;34.75;;;;;;;;;;5077180;28;20062;-64
2020/12/12 07:06:55;;;;;;;78.97;33.45;;;;;;;;;;5082197;28;20020;-64
2020/12/12 07:09:23;;;;;;;74.55;32.22;;;;;;;;;;5088316;28;20559;-65
2020/12/12 07:11:49;;;;;;;74.32;31.92;;;;;;;;;;5075863;28;20035;-64
2020/12/12 07:14:16;;;;;;;80.50;33.83;;;;;;;;;;5074489;28;20046;-64
2020/12/12 07:16:43;;;;;;;82.47;38.00;;;;;;;;;;5076149;28;20027;-64
2020/12/12 07:19:10;;;;;;;69.63;32.17;;;;;;;;;;5080031;28;20027;-64
2020/12/12 07:21:40;;;;;;;74.03;33.40;;;;;;;;;;5082023;28;20028;-64
2020/12/12 07:24:06;;;;;;;96.28;49.13;;;;;;;;;;5070079;28;20039;-64
2020/12/12 07:26:33;;;;;;;88.75;39.35;;;;;;;;;;5070243;28;20835;-64
2020/12/12 07:28:59;;;;;;;78.57;33.95;;;;;;;;;;5079095;28;20479;-64
2020/12/12 07:31:25;;;;;;;234.45;118.63;;;;;;;;;;5086485;28;20107;-64
2020/12/12 07:33:51;;;;;;;90.20;41.75;;;;;;;;;;5069333;28;20119;-64
2020/12/12 07:36:17;;;;;;;179.00;88.45;;;;;;;;;;5069685;28;20031;-65
2020/12/12 07:38:43;;;;;;;132.90;59.17;;;;;;;;;;5082134;28;20036;-64
2020/12/12 07:41:13;;;;;;;76.10;35.03;;;;;;;;;;5071783;28;20040;-64
2020/12/12 07:43:50;;;;;;;73.22;33.97;;;;;;;;;;5072288;28;20032;-64
2020/12/12 07:46:16;;;;;;;89.25;40.63;;;;;;;;;;5073219;28;20036;-64
2020/12/12 07:48:42;;;;;;;107.07;46.60;;;;;;;;;;5087498;28;20039;-64
2020/12/12 07:51:15;;;;;;;110.75;57.28;;;;;;;;;;5073719;28;20032;-64
2020/12/12 07:53:41;;;;;;;86.60;37.42;;;;;;;;;;5070487;28;20365;-64
2020/12/12 07:56:07;;;;;;;80.20;40.75;;;;;;;;;;5081463;28;20033;-65
2020/12/12 07:58:37;;;;;;;75.75;34.45;;;;;;;;;;5073236;28;20033;-65
2020/12/12 08:01:06;;;;;;;78.13;34.85;;;;;;;;;;5075406;28;20414;-65
2020/12/12 08:03:33;;;;;;;76.93;36.22;;;;;;;;;;5072792;28;20043;-65
2020/12/12 08:06:03;;;;;;;73.47;34.53;;;;;;;;;;5083314;28;20050;-64
2020/12/12 08:08:29;;;;;;;73.85;32.13;;;;;;;;;;5083258;28;20032;-65
2020/12/12 08:10:59;;;;;;;63.35;30.52;;;;;;;;;;5083882;28;20071;-65
2020/12/12 08:13:25;;;;;;;79.57;32.03;;;;;;;;;;5067578;28;20047;-64
2020/12/12 08:16:12;;;;;;;66.53;31.90;;;;;;;;;;5071064;28;20456;-64
2020/12/12 08:18:38;;;;;;;75.82;33.33;;;;;;;;;;5075764;28;20047;-64
2020/12/12 08:21:15;;;;;;;83.43;35.95;;;;;;;;;;5072931;28;20048;-64
2020/12/12 08:23:41;;;;;;;69.35;31.02;;;;;;;;;;5062091;28;20120;-64
2020/12/12 08:26:08;;;;;;;76.80;34.47;;;;;;;;;;5072335;28;20031;-64
2020/12/12 08:28:34;;;;;;;66.63;32.65;;;;;;;;;;5081521;28;20411;-64
2020/12/12 08:31:08;;;;;;;87.10;43.95;;;;;;;;;;5079572;28;20036;-64
2020/12/12 08:33:34;;;;;;;74.28;31.95;;;;;;;;;;5065924;28;20024;-64
2020/12/12 08:36:10;;;;;;;78.85;38.75;;;;;;;;;;5065485;28;20569;-64
2020/12/12 08:38:37;;;;;;;74.03;35.75;;;;;;;;;;5072379;28;20177;-64
2020/12/12 08:41:10;;;;;;;97.18;44.20;;;;;;;;;;5076851;28;20021;-64
2020/12/12 08:43:36;;;;;;;106.55;50.75;;;;;;;;;;5059496;28;20048;-64
2020/12/12 08:46:03;;;;;;;75.22;33.53;;;;;;;;;;5059368;28;20365;-64
2020/12/12 08:48:33;;;;;;;74.80;36.58;;;;;;;;;;5076353;28;20119;-64
2020/12/12 08:51:00;;;;;;;74.18;33.95;;;;;;;;;;5069531;28;20020;-64
2020/12/12 08:53:35;;;;;;;70.28;32.58;;;;;;;;;;5068658;28;20041;-64
2020/12/12 08:56:07;;;;;;;75.68;32.97;;;;;;;;;;5070922;28;20028;-64
2020/12/12 08:58:33;;;;;;;74.43;33.65;;;;;;;;;;5083914;28;20046;-64
2020/12/12 09:01:28;;;;;;;72.97;33.30;;;;;;;;;;5071589;28;20025;-62
2020/12/12 09:03:55;;;;;;;72.75;33.33;;;;;;;;;;5051631;28;20171;-62
2020/12/12 09:06:22;;;;;;;76.22;34.50;;;;;;;;;;5074535;28;20127;-62
2020/12/12 09:08:48;;;;;;;72.75;33.63;;;;;;;;;;5070953;28;20047;-63
2020/12/12 09:11:15;;;;;;;74.50;33.63;;;;;;;;;;5072950;28;20028;-62
2020/12/12 09:13:41;;;;;;;77.70;34.08;;;;;;;;;;5074428;28;20038;-62
2020/12/12 09:16:08;;;;;;;76.32;35.80;;;;;;;;;;5069589;28;20032;-63
2020/12/12 09:18:44;;;;;;;75.90;34.38;;;;;;;;;;5066778;28;20024;-62
2020/12/12 09:21:10;;;;;;;75.00;32.78;;;;;;;;;;5086893;28;20024;-63
2020/12/12 09:23:36;;;;;;;77.32;33.90;;;;;;;;;;5081456;28;20089;-62
2020/12/12 09:26:02;;;;;;;72.30;33.85;;;;;;;;;;5066256;28;20123;-62
2020/12/12 09:28:28;;;;;;;71.68;32.90;;;;;;;;;;5058578;28;20040;-62
2020/12/12 09:30:54;;;;;;;75.50;33.22;;;;;;;;;;5068288;28;20747;-62
2020/12/12 09:33:20;;;;;;;70.68;34.28;;;;;;;;;;5066977;28;20465;-63
2020/12/12 09:35:46;;;;;;;81.25;33.35;;;;;;;;;;5062329;28;20025;-63
2020/12/12 09:38:12;;;;;;;82.68;35.13;;;;;;;;;;5070683;28;20013;-63
2020/12/12 09:40:38;;;;;;;72.05;33.83;;;;;;;;;;5061838;28;20127;-62
2020/12/12 09:43:04;;;;;;;70.47;33.03;;;;;;;;;;5061746;28;20029;-62
2020/12/12 09:45:30;;;;;;;69.95;32.63;;;;;;;;;;5066435;28;20019;-62
2020/12/12 09:47:56;;;;;;;71.35;32.83;;;;;;;;;;5085302;28;20019;-62
2020/12/12 09:50:33;;;;;;;77.72;34.30;;;;;;;;;;5073655;28;20024;-62
2020/12/12 09:52:59;;;;;;;72.70;33.97;;;;;;;;;;5068525;28;20028;-62
2020/12/12 09:55:25;;;;;;;75.03;33.90;;;;;;;;;;5084466;28;20119;-62
2020/12/12 09:57:51;;;;;;;74.63;33.92;;;;;;;;;;5085734;28;20028;-61
2020/12/12 10:00:17;;;;;;;79.50;36.50;;;;;;;;;;5084733;28;20028;-62
2020/12/12 10:02:43;;;;;;;79.55;33.30;;;;;;;;;;5081555;28;20044;-63
2020/12/12 10:05:09;;;;;;;70.45;34.25;;;;;;;;;;5084531;28;20031;-63
2020/12/12 10:07:35;;;;;;;71.47;33.88;;;;;;;;;;5085977;28;20459;-62
2020/12/12 10:10:01;;;;;;;72.43;33.90;;;;;;;;;;5083394;28;20062;-62
2020/12/12 10:12:27;;;;;;;71.07;34.40;;;;;;;;;;5075704;28;20090;-63
2020/12/12 10:14:53;;;;;;;74.80;35.47;;;;;;;;;;5069830;28;20028;-62
2020/12/12 10:17:18;;;;;;;79.82;35.28;;;;;;;;;;5091471;28;20020;-62
2020/12/12 10:19:44;;;;;;;81.75;35.08;;;;;;;;;;5092050;28;20020;-62
2020/12/12 10:22:10;;;;;;;71.22;33.03;;;;;;;;;;5089123;28;20024;-62
2020/12/12 10:24:36;;;;;;;73.82;34.42;;;;;;;;;;5089642;28;20689;-63
2020/12/12 10:27:02;;;;;;;82.57;34.45;;;;;;;;;;5092224;28;20552;-62
2020/12/12 10:29:28;;;;;;;76.97;33.75;;;;;;;;;;5091453;28;20089;-63
2020/12/12 10:31:54;;;;;;;78.13;33.63;;;;;;;;;;5077231;28;20047;-62
2020/12/12 10:34:20;;;;;;;74.57;33.08;;;;;;;;;;5088913;28;20035;-63
2020/12/12 10:36:46;;;;;;;77.45;32.95;;;;;;;;;;5080765;28;20472;-63
2020/12/12 10:39:12;;;;;;;82.32;35.28;;;;;;;;;;5090837;28;20023;-63
2020/12/12 10:41:38;;;;;;;79.85;34.45;;;;;;;;;;5085325;28;20051;-63
2020/12/12 10:44:05;;;;;;;79.90;34.67;;;;;;;;;;5082026;28;20032;-62
2020/12/12 10:46:31;;;;;;;75.50;34.25;;;;;;;;;;5080040;28;20026;-63
2020/12/12 10:48:57;;;;;;;80.13;33.50;;;;;;;;;;5092114;28;20058;-63
2020/12/12 10:51:23;;;;;;;86.88;35.65;;;;;;;;;;5090315;28;20028;-63
2020/12/12 10:53:51;;;;;;;80.65;35.63;;;;;;;;;;5090832;28;20449;-63
2020/12/12 10:56:17;;;;;;;75.40;33.28;;;;;;;;;;5080284;28;20028;-62
2020/12/12 10:58:43;;;;;;;75.13;33.47;;;;;;;;;;5092068;28;20023;-62
2020/12/12 11:01:09;;;;;;;83.97;36.13;;;;;;;;;;5092442;28;20024;-62
2020/12/12 11:03:35;;;;;;;76.10;34.42;;;;;;;;;;5091607;28;20059;-62
2020/12/12 11:06:01;;;;;;;71.45;32.65;;;;;;;;;;5087892;28;20030;-62
2020/12/12 11:08:27;;;;;;;74.28;33.38;;;;;;;;;;5090211;28;20039;-62
2020/12/12 11:10:53;;;;;;;70.13;33.35;;;;;;;;;;5091760;28;20081;-63
2020/12/12 11:13:20;;;;;;;72.93;32.58;;;;;;;;;;5081310;28;20480;-62
2020/12/12 11:15:46;;;;;;;73.68;34.35;;;;;;;;;;5075858;28;20013;-63
2020/12/12 11:18:12;;;;;;;83.20;35.28;;;;;;;;;;5087124;28;20447;-63
2020/12/12 11:20:38;;;;;;;78.00;33.92;;;;;;;;;;5090198;28;20092;-63
2020/12/12 11:23:04;;;;;;;79.13;34.50;;;;;;;;;;5089058;28;20032;-63
2020/12/12 11:25:30;;;;;;;72.65;32.90;;;;;;;;;;5090354;28;20024;-63
2020/12/12 11:27:56;;;;;;;77.18;33.17;;;;;;;;;;5073043;28;20024;-63
2020/12/12 11:30:23;;;;;;;79.15;33.45;;;;;;;;;;5078607;28;20025;-63
2020/12/12 11:32:49;;;;;;;77.90;33.58;;;;;;;;;;5079670;28;20047;-63
2020/12/12 11:35:18;;;;;;;74.47;33.33;;;;;;;;;;5075127;28;20059;-62
2020/12/12 11:40:17;;;;;;;75.43;32.47;;;;;;;;;;5076915;28;20036;-62
2020/12/12 11:43:18;;;;;;;80.00;34.30;;;;;;;;;;5075427;28;20511;-63
2020/12/12 11:48:19;;;;;;;73.80;33.97;;;;;;;;;;5085719;28;20028;-63
2020/12/12 11:50:45;;;;;;;76.88;33.67;;;;;;;;;;5070665;28;20058;-63
2020/12/12 11:53:11;;;;;;;68.35;32.47;;;;;;;;;;5084791;28;20050;-62
2020/12/12 11:55:37;;;;;;;77.45;33.75;;;;;;;;;;5088245;28;20498;-60
2020/12/12 11:58:03;;;;;;;71.97;33.85;;;;;;;;;;5086494;28;20081;-62
2020/12/12 12:00:29;;;;;;;68.30;32.13;;;;;;;;;;5085406;28;20032;-62
2020/12/12 12:02:55;;;;;;;71.07;31.15;;;;;;;;;;5086549;28;20101;-63
2020/12/12 12:05:21;;;;;;;72.60;33.10;;;;;;;;;;5087765;28;20028;-62
2020/12/12 12:07:50;;;;;;;72.75;31.73;;;;;;;;;;5086905;28;20028;-63
2020/12/12 12:12:45;;;;;;;76.82;31.85;;;;;;;;;;5074811;28;20032;-63
2020/12/12 12:15:11;;;;;;;79.38;33.53;;;;;;;;;;5075080;28;20020;-63
2020/12/12 12:17:36;;;;;;;73.25;32.60;;;;;;;;;;5087859;28;20395;-63
2020/12/12 12:20:04;;;;;;;77.78;34.05;;;;;;;;;;5086033;28;20085;-63
2020/12/12 12:22:30;;;;;;;78.43;33.05;;;;;;;;;;5084282;28;20016;-63
2020/12/12 12:24:56;;;;;;;73.45;32.53;;;;;;;;;;5086863;28;20031;-62
2020/12/12 12:27:22;;;;;;;78.75;33.83;;;;;;;;;;5086631;28;20094;-62
2020/12/12 12:29:48;;;;;;;78.35;34.17;;;;;;;;;;5081539;28;20115;-62
2020/12/12 12:32:14;;;;;;;76.80;33.53;;;;;;;;;;5076774;28;20058;-62
2020/12/12 12:34:40;;;;;;;75.07;33.03;;;;;;;;;;5075221;28;20024;-63
2020/12/12 12:37:07;;;;;;;73.78;32.40;;;;;;;;;;5084433;28;20024;-62
2020/12/12 12:39:33;;;;;;;77.53;34.85;;;;;;;;;;5085597;28;20032;-63
2020/12/12 12:41:59;;;;;;;76.30;33.78;;;;;;;;;;5076980;28;20066;-62
2020/12/12 12:44:25;;;;;;;68.13;32.25;;;;;;;;;;5080561;28;20120;-62
2020/12/12 12:46:50;;;;;;;73.07;35.65;;;;;;;;;;5068824;28;20033;-61
2020/12/12 12:49:17;;;;;;;76.13;34.78;;;;;;;;;;5081163;28;20035;-62
2020/12/12 12:51:43;;;;;;;73.63;32.70;;;;;;;;;;5073853;28;20448;-63
2020/12/12 12:54:10;;;;;;;71.78;32.17;;;;;;;;;;5084340;28;20112;-63
2020/12/12 12:56:36;;;;;;;77.78;33.40;;;;;;;;;;5086762;28;20134;-62
2020/12/12 12:59:03;;;;;;;79.07;33.05;;;;;;;;;;5081743;28;20028;-63
2020/12/12 13:01:29;;;;;;;70.78;32.10;;;;;;;;;;5085313;28;20092;-63
2020/12/12 13:03:54;;;;;;;69.45;31.50;;;;;;;;;;5087109;28;20047;-63
2020/12/12 13:06:24;;;;;;;65.95;30.42;;;;;;;;;;5083594;28;20027;-63
2020/12/12 13:08:51;;;;;;;73.72;32.95;;;;;;;;;;5085033;28;20458;-63
2020/12/12 13:11:17;;;;;;;75.03;31.90;;;;;;;;;;5055423;28;20427;-63
2020/12/12 13:13:43;;;;;;;72.82;31.63;;;;;;;;;;5078553;28;20379;-63
2020/12/12 13:16:10;;;;;;;66.85;29.88;;;;;;;;;;5081048;28;20024;-63
2020/12/12 13:18:44;;;;;;;75.22;32.15;;;;;;;;;;5086558;28;20471;-63
2020/12/12 13:21:14;;;;;;;72.80;32.50;;;;;;;;;;5087104;28;20027;-63
2020/12/12 13:23:40;;;;;;;71.60;32.55;;;;;;;;;;5085274;28;20028;-62
2020/12/12 13:26:07;;;;;;;71.03;32.78;;;;;;;;;;5085416;28;20020;-62
2020/12/12 13:29:38;;;;;;;78.22;33.28;;;;;;;;;;5084633;28;20403;-63
2020/12/12 13:31:34;;;;;;;69.57;32.15;;;;;;;;;;5068540;28;20040;-63
2020/12/12 13:34:02;;;;;;;72.63;32.90;;;;;;;;;;5084816;28;20047;-63
2020/12/12 13:36:29;;;;;;;82.15;34.47;;;;;;;;;;5082611;28;20028;-62
2020/12/12 13:38:55;;;;;;;81.50;34.47;;;;;;;;;;5082225;28;20093;-63
2020/12/12 13:41:22;;;;;;;80.68;33.35;;;;;;;;;;5081153;28;20021;-63
2020/12/12 13:43:48;;;;;;;83.43;35.42;;;;;;;;;;5079264;28;20036;-63
2020/12/12 13:46:14;;;;;;;80.88;35.63;;;;;;;;;;5073491;28;20478;-63
2020/12/12 13:48:40;;;;;;;73.15;33.08;;;;;;;;;;5084046;28;20122;-63
2020/12/12 13:51:06;;;;;;;83.15;34.78;;;;;;;;;;5083554;28;20433;-63
2020/12/12 13:53:32;;;;;;;79.65;33.33;;;;;;;;;;5085866;28;20028;-63
2020/12/12 13:55:58;;;;;;;85.55;34.60;;;;;;;;;;5085843;28;20028;-63
2020/12/12 13:58:24;;;;;;;74.90;32.33;;;;;;;;;;5084014;28;20059;-63
2020/12/12 14:00:50;;;;;;;82.60;32.78;;;;;;;;;;5084236;28;20043;-63
2020/12/12 14:03:16;;;;;;;71.50;30.40;;;;;;;;;;5083254;28;20748;-63
2020/12/12 14:06:17;;;;;;;80.35;31.15;;;;;;;;;;5083052;28;20447;-63
2020/12/12 14:08:57;;;;;;;69.93;30.52;;;;;;;;;;5059555;28;20060;-63
2020/12/12 14:24:51;;;;;;;108.40;45.88;;;;;;;;;;5063899;28;20550;-63
2020/12/12 14:30:02;;;;;;;71.35;30.95;;;;;;;;;;5062893;28;20078;-63
2020/12/12 14:32:28;;;;;;;70.45;30.85;;;;;;;;;;5065350;28;20040;-63
2020/12/12 14:34:54;;;;;;;79.07;32.22;;;;;;;;;;5068053;28;20035;-63
2020/12/12 14:37:20;;;;;;;69.25;29.80;;;;;;;;;;5075470;28;20048;-63